Time;durP1;ratioP1;P1;durP2;ratioP2;P2;SDS_P1;SDS_P2;PMS_P1;PMS_P2;Temp;Humidity;BMP_temperature;BMP_pressure;BME280_temperature;BME280_humidity;BME280_pressure;Samples;Min_cycle;Max_cycle;Signal;HPM_P1;HPM_P2
2021/06/09 00:00:27;;;;;;;29.77;6.40;;;;;14.50;101042.00;;;;5048997;28;20037;-67
2021/06/09 00:02:54;;;;;;;30.95;7.50;;;;;14.50;101033.00;;;;5049241;28;20087;-67
2021/06/09 00:05:20;;;;;;;38.33;9.85;;;;;14.50;101060.00;;;;5049145;28;20078;-70
2021/06/09 00:07:47;;;;;;;39.13;9.23;;;;;14.50;101051.00;;;;5048103;28;20472;-69
2021/06/09 00:10:14;;;;;;;35.03;9.27;;;;;14.50;101043.00;;;;5048480;28;20131;-68
2021/06/09 00:12:41;;;;;;;37.97;8.30;;;;;14.50;101042.00;;;;5048433;28;20590;-69
2021/06/09 00:15:11;;;;;;;37.13;9.23;;;;;14.50;101050.00;;;;5048243;28;20025;-68
2021/06/09 00:17:38;;;;;;;40.03;8.27;;;;;14.50;101052.00;;;;5048863;28;20036;-69
2021/06/09 00:20:11;;;;;;;44.63;7.82;;;;;14.50;101055.00;;;;5034493;28;20496;-67
2021/06/09 00:22:38;;;;;;;38.15;8.85;;;;;14.50;101058.00;;;;5029107;28;20079;-67
2021/06/09 00:25:13;;;;;;;34.35;7.88;;;;;14.50;101053.00;;;;5028681;28;20453;-70
2021/06/09 00:27:40;;;;;;;24.95;6.13;;;;;14.50;101050.00;;;;5037550;28;20415;-72
2021/06/09 00:30:07;;;;;;;23.17;5.97;;;;;14.50;101051.00;;;;5037002;28;20040;-68
2021/06/09 00:32:33;;;;;;;30.25;6.03;;;;;14.50;101049.00;;;;5038775;28;20071;-69
2021/06/09 00:35:00;;;;;;;26.33;5.75;;;;;14.50;101057.00;;;;5033689;28;20030;-68
2021/06/09 00:37:26;;;;;;;27.58;6.53;;;;;14.40;101042.00;;;;5028787;28;20503;-71
2021/06/09 00:39:53;;;;;;;30.13;6.70;;;;;14.40;101040.00;;;;5027766;28;20083;-70
2021/06/09 00:42:23;;;;;;;28.38;7.38;;;;;14.40;101034.00;;;;5027631;28;20040;-67
2021/06/09 00:44:49;;;;;;;32.88;7.05;;;;;14.40;101031.00;;;;5027229;28;20115;-67
2021/06/09 00:47:20;;;;;;;32.90;6.95;;;;;14.40;101028.00;;;;5026944;28;20041;-69
2021/06/09 00:49:47;;;;;;;34.45;7.10;;;;;14.40;101029.00;;;;5028293;28;20500;-68
2021/06/09 00:52:14;;;;;;;39.78;6.78;;;;;14.40;101026.00;;;;5028245;28;20033;-68
2021/06/09 00:54:40;;;;;;;29.23;6.05;;;;;14.40;101040.00;;;;5028448;28;20346;-70
2021/06/09 00:57:08;;;;;;;38.15;6.63;;;;;14.40;101036.00;;;;5028134;28;20869;-71
2021/06/09 00:59:37;;;;;;;35.13;6.30;;;;;14.30;101044.00;;;;5028125;28;20111;-69
2021/06/09 01:02:04;;;;;;;24.48;6.07;;;;;14.30;101037.00;;;;5028225;28;20065;-69
2021/06/09 01:04:31;;;;;;;24.60;6.15;;;;;14.30;101031.00;;;;5028539;28;20052;-70
2021/06/09 01:07:01;;;;;;;29.67;6.32;;;;;14.30;101023.00;;;;5028319;28;20432;-71
2021/06/09 01:09:28;;;;;;;39.60;6.45;;;;;14.40;101017.00;;;;5026989;28;20040;-71
2021/06/09 01:11:56;;;;;;;37.17;7.63;;;;;14.40;101037.00;;;;5027759;28;20488;-70
2021/06/09 01:14:23;;;;;;;34.63;7.15;;;;;14.40;101027.00;;;;5027900;28;20033;-68
2021/06/09 01:16:51;;;;;;;29.70;8.00;;;;;14.40;101043.00;;;;5027709;28;20120;-67
2021/06/09 01:19:22;;;;;;;39.67;7.88;;;;;14.40;101039.00;;;;5027260;28;20029;-69
2021/06/09 01:21:49;;;;;;;35.22;8.82;;;;;14.40;101034.00;;;;5027540;28;20495;-68
2021/06/09 01:24:16;;;;;;;33.95;11.95;;;;;14.40;101022.00;;;;5027943;28;20064;-69
2021/06/09 01:26:44;;;;;;;50.33;13.02;;;;;14.40;101033.00;;;;5027681;28;20038;-67
2021/06/09 01:29:11;;;;;;;45.95;9.88;;;;;14.40;101040.00;;;;5028097;28;20017;-67
2021/06/09 01:31:38;;;;;;;38.90;9.82;;;;;14.40;101029.00;;;;5027794;28;20029;-69
2021/06/09 01:34:06;;;;;;;35.22;9.43;;;;;14.30;101035.00;;;;5027465;28;20026;-70
2021/06/09 01:36:43;;;;;;;41.88;10.90;;;;;14.30;101029.00;;;;5027318;28;20471;-69
2021/06/09 01:39:12;;;;;;;35.42;9.60;;;;;14.30;101038.00;;;;5027833;28;20103;-71
2021/06/09 01:41:48;;;;;;;43.40;11.35;;;;;14.30;101033.00;;;;5027340;28;20057;-68
2021/06/09 01:44:14;;;;;;;38.95;11.90;;;;;14.30;101051.00;;;;5027283;28;20025;-70
2021/06/09 01:46:42;;;;;;;40.50;10.90;;;;;14.30;101064.00;;;;5027112;28;20040;-70
2021/06/09 01:49:10;;;;;;;35.50;11.55;;;;;14.30;101063.00;;;;5027395;28;20041;-71
2021/06/09 01:51:37;;;;;;;27.08;10.30;;;;;14.30;101055.00;;;;5027939;28;20030;-68
2021/06/09 01:54:06;;;;;;;34.47;10.27;;;;;14.30;101067.00;;;;5027536;28;20059;-69
2021/06/09 01:56:33;;;;;;;37.88;10.88;;;;;14.30;101052.00;;;;5027111;28;20060;-69
2021/06/09 01:59:13;;;;;;;26.50;9.55;;;;;14.30;101059.00;;;;5027256;28;20472;-68
2021/06/09 02:01:43;;;;;;;30.40;11.32;;;;;14.30;101058.00;;;;5027432;28;20029;-68
2021/06/09 02:04:11;;;;;;;43.03;11.07;;;;;14.30;101073.00;;;;5027019;28;20041;-69
2021/06/09 02:06:39;;;;;;;40.47;12.40;;;;;14.30;101072.00;;;;5026954;28;20037;-69
2021/06/09 02:09:07;;;;;;;38.83;12.85;;;;;14.30;101079.00;;;;5026877;28;20455;-68
2021/06/09 02:11:33;;;;;;;34.67;13.38;;;;;14.40;101075.00;;;;5026643;28;20132;-69
2021/06/09 02:14:01;;;;;;;42.05;12.95;;;;;14.40;101083.00;;;;5025661;28;20031;-69
2021/06/09 02:16:37;;;;;;;46.20;13.65;;;;;14.40;101100.00;;;;5026549;28;20025;-66
2021/06/09 02:19:05;;;;;;;33.97;12.82;;;;;14.40;101086.00;;;;5026758;28;20182;-67
2021/06/09 02:21:37;;;;;;;38.88;12.73;;;;;14.40;101080.00;;;;5026870;28;20038;-67
2021/06/09 02:24:03;;;;;;;;;;;;;14.40;101083.00;;;;5027493;28;20029;-68
2021/06/09 02:26:32;;;;;;;40.33;13.30;;;;;14.40;101077.00;;;;5026563;28;19917;-69
2021/06/09 02:29:00;;;;;;;48.97;16.27;;;;;14.40;101077.00;;;;5027042;28;20512;-69
2021/06/09 02:31:27;;;;;;;45.78;15.75;;;;;14.40;101082.00;;;;5026307;28;20030;-70
2021/06/09 02:33:55;;;;;;;39.72;12.65;;;;;14.40;101073.00;;;;5027316;28;20029;-70
2021/06/09 02:36:22;;;;;;;31.40;12.60;;;;;14.40;101076.00;;;;5026681;28;20083;-68
2021/06/09 02:38:49;;;;;;;35.60;13.07;;;;;14.40;101084.00;;;;5025176;28;20040;-68
2021/06/09 02:41:16;;;;;;;33.30;11.93;;;;;14.40;101091.00;;;;5026744;28;20033;-70
2021/06/09 02:43:44;;;;;;;34.75;12.25;;;;;14.40;101087.00;;;;5026954;28;20068;-70
2021/06/09 02:46:20;;;;;;;37.20;12.43;;;;;14.30;101083.00;;;;5026558;28;20083;-68
2021/06/09 02:48:54;;;;;;;38.28;11.73;;;;;14.40;101069.00;;;;5026740;28;20029;-67
2021/06/09 02:51:24;;;;;;;32.38;11.85;;;;;14.40;101071.00;;;;5026141;28;20440;-68
2021/06/09 02:54:21;;;;;;;33.30;11.63;;;;;14.40;101088.00;;;;5026809;28;20044;-69
2021/06/09 02:57:11;;;;;;;38.28;12.55;;;;;14.40;101084.00;;;;5018735;28;20112;-69
2021/06/09 02:59:56;;;;;;;22.45;9.57;;;;;14.30;101077.00;;;;5026418;28;20025;-67
2021/06/09 03:02:33;;;;;;;36.03;11.68;;;;;14.40;101074.00;;;;5027263;28;20079;-69
2021/06/09 03:05:22;;;;;;;32.47;10.95;;;;;14.40;101057.00;;;;5026684;28;20464;-67
2021/06/09 03:08:18;;;;;;;37.83;9.23;;;;;14.40;101072.00;;;;5026259;28;20123;-69
2021/06/09 03:11:05;;;;;;;34.92;9.45;;;;;14.40;101040.00;;;;5026308;28;20041;-69
2021/06/09 03:14:14;;;;;;;43.30;11.55;;;;;14.40;101052.00;;;;5026566;28;20040;-70
2021/06/09 03:16:56;;;;;;;43.30;12.70;;;;;14.40;101058.00;;;;5026087;28;20044;-68
2021/06/09 03:19:38;;;;;;;35.47;11.68;;;;;14.40;101055.00;;;;5026417;28;20395;-67
2021/06/09 03:22:32;;;;;;;36.80;10.07;;;;;14.40;101053.00;;;;5026547;28;20132;-70
2021/06/09 03:25:01;;;;;;;25.25;7.88;;;;;14.40;101057.00;;;;5016864;28;20416;-71
2021/06/09 03:27:34;;;;;;;30.98;8.38;;;;;14.40;101062.00;;;;5026151;28;20025;-68
2021/06/09 03:30:13;;;;;;;31.77;9.25;;;;;14.40;101046.00;;;;5026102;28;20382;-70
2021/06/09 03:32:54;;;;;;;42.58;10.18;;;;;14.40;101048.00;;;;5026058;28;20034;-70
2021/06/09 03:35:34;;;;;;;35.33;8.20;;;;;14.40;101054.00;;;;5026032;28;20025;-68
2021/06/09 03:38:09;;;;;;;24.15;7.00;;;;;14.50;101052.00;;;;5026123;28;20679;-70
2021/06/09 03:40:42;;;;;;;28.38;7.78;;;;;14.50;101045.00;;;;5026323;28;20034;-70
2021/06/09 03:43:12;;;;;;;33.42;7.85;;;;;14.50;101047.00;;;;5028525;28;20026;-68
2021/06/09 03:45:49;;;;;;;34.73;6.07;;;;;14.50;101050.00;;;;5029468;28;20542;-69
2021/06/09 03:48:19;;;;;;;38.88;6.38;;;;;14.50;101036.00;;;;5030549;28;20055;-68
2021/06/09 03:50:48;;;;;;;38.15;7.10;;;;;14.60;101039.00;;;;5029543;28;20116;-68
2021/06/09 03:53:15;;;;;;;23.98;5.72;;;;;14.50;101040.00;;;;5029576;28;20026;-70
2021/06/09 03:55:47;;;;;;;29.15;6.97;;;;;14.50;101053.00;;;;5029478;28;20021;-70
2021/06/09 03:58:16;;;;;;;25.38;6.13;;;;;14.50;101032.00;;;;5029405;28;20131;-67
2021/06/09 04:00:46;;;;;;;23.73;5.45;;;;;14.50;101023.00;;;;5029454;28;20112;-69
2021/06/09 04:03:13;;;;;;;20.67;5.10;;;;;14.50;101005.00;;;;5029298;28;20025;-70
2021/06/09 04:05:43;;;;;;;26.30;5.50;;;;;14.50;101002.00;;;;5029402;28;20377;-69
2021/06/09 04:08:15;;;;;;;22.38;5.20;;;;;14.50;100998.00;;;;5029067;28;20065;-70
2021/06/09 04:10:43;;;;;;;15.32;4.10;;;;;14.50;100989.00;;;;5029132;28;20099;-68
2021/06/09 04:13:11;;;;;;;24.23;4.55;;;;;14.50;100994.00;;;;5029266;28;20029;-70
2021/06/09 04:15:39;;;;;;;19.02;4.00;;;;;14.60;101015.00;;;;5029156;28;20378;-68
2021/06/09 04:18:08;;;;;;;17.27;3.75;;;;;14.60;101008.00;;;;5029216;28;20033;-70
2021/06/09 04:20:36;;;;;;;18.35;3.50;;;;;14.60;101007.00;;;;5028887;28;20033;-69
2021/06/09 04:23:04;;;;;;;9.02;2.60;;;;;14.60;101010.00;;;;5029130;28;20534;-69
2021/06/09 04:25:31;;;;;;;12.32;2.78;;;;;14.60;101007.00;;;;5029268;28;20488;-69
2021/06/09 04:27:58;;;;;;;17.73;3.10;;;;;14.70;101002.00;;;;5028852;28;20480;-69
2021/06/09 04:30:25;;;;;;;19.27;2.83;;;;;14.70;101008.00;;;;5028638;28;20083;-68
2021/06/09 04:33:11;;;;;;;13.93;2.20;;;;;14.90;101010.00;;;;5029258;28;20068;-68
2021/06/09 04:35:44;;;;;;;14.45;2.30;;;;;14.90;101021.00;;;;5028723;28;20412;-70
2021/06/09 04:38:18;;;;;;;9.60;2.35;;;;;14.90;101013.00;;;;5028639;28;20116;-67
2021/06/09 04:40:48;;;;;;;12.93;2.38;;;;;14.90;101023.00;;;;5028743;28;20032;-70
2021/06/09 04:43:15;;;;;;;10.60;1.90;;;;;14.90;101023.00;;;;5028346;28;20029;-70
2021/06/09 04:45:42;;;;;;;9.27;1.92;;;;;14.80;101018.00;;;;5028399;28;20480;-71
2021/06/09 04:48:12;;;;;;;10.50;1.75;;;;;14.80;101026.00;;;;5028180;28;20497;-69
2021/06/09 04:50:41;;;;;;;7.32;1.85;;;;;14.80;101000.00;;;;5028434;28;20029;-70
2021/06/09 04:53:11;;;;;;;8.85;1.70;;;;;14.90;101000.00;;;;5028231;28;20492;-70
2021/06/09 04:55:46;;;;;;;13.95;1.88;;;;;14.90;100991.00;;;;5028277;28;20492;-70
2021/06/09 04:58:14;;;;;;;9.00;1.75;;;;;15.00;101002.00;;;;5029284;28;20033;-69
2021/06/09 05:00:43;;;;;;;8.55;1.48;;;;;15.00;101008.00;;;;5028334;28;20075;-69
2021/06/09 05:03:09;;;;;;;7.70;1.65;;;;;15.00;101008.00;;;;5028328;28;20029;-69
2021/06/09 05:05:36;;;;;;;11.55;1.45;;;;;15.00;101016.00;;;;5028180;28;20033;-69
2021/06/09 05:08:03;;;;;;;10.23;1.60;;;;;14.90;101007.00;;;;5028139;28;20033;-70
2021/06/09 05:10:30;;;;;;;4.32;1.40;;;;;14.70;101005.00;;;;5027984;28;20061;-67
2021/06/09 05:13:02;;;;;;;9.60;1.67;;;;;14.60;101008.00;;;;5027978;28;20092;-70
2021/06/09 05:15:33;;;;;;;8.38;1.48;;;;;14.50;101005.00;;;;5028164;28;20032;-71
2021/06/09 05:18:07;;;;;;;8.88;1.50;;;;;14.30;100999.00;;;;5028301;28;20022;-70
2021/06/09 05:20:36;;;;;;;16.20;1.80;;;;;14.20;101001.00;;;;5028630;28;20095;-68
2021/06/09 05:23:31;;;;;;;16.60;1.60;;;;;14.20;100997.00;;;;5026717;28;20034;-70
2021/06/09 05:25:59;;;;;;;12.27;1.70;;;;;14.10;100987.00;;;;5027097;28;20419;-68
2021/06/09 05:28:30;;;;;;;20.00;2.08;;;;;14.00;100977.00;;;;5028032;28;20072;-70
2021/06/09 05:30:58;;;;;;;12.23;1.90;;;;;13.80;100981.00;;;;5027793;28;20029;-67
2021/06/09 05:33:27;;;;;;;12.05;1.45;;;;;13.80;100970.00;;;;5027770;28;20061;-69
2021/06/09 05:35:55;;;;;;;13.75;1.70;;;;;13.80;100980.00;;;;5027676;28;20136;-69
2021/06/09 05:38:23;;;;;;;15.10;1.70;;;;;13.70;100972.00;;;;5027227;28;20037;-69
2021/06/09 05:40:50;;;;;;;14.18;1.45;;;;;13.70;100968.00;;;;5027556;28;20034;-70
2021/06/09 05:43:25;;;;;;;23.10;1.63;;;;;13.70;100968.00;;;;5028241;28;20021;-70
2021/06/09 05:45:52;;;;;;;14.45;2.10;;;;;13.70;100956.00;;;;5027513;28;20048;-69
2021/06/09 05:48:19;;;;;;;14.30;1.67;;;;;13.60;100959.00;;;;5027898;28;20025;-68
2021/06/09 05:50:55;;;;;;;19.58;1.92;;;;;13.60;100958.00;;;;5027275;28;20033;-69
2021/06/09 05:53:23;;;;;;;14.77;1.60;;;;;13.60;100956.00;;;;5027281;28;20025;-68
2021/06/09 05:55:50;;;;;;;9.05;1.45;;;;;13.60;100965.00;;;;5027056;28;20033;-70
2021/06/09 05:58:22;;;;;;;11.88;1.20;;;;;13.60;100966.00;;;;5027343;28;20083;-71
2021/06/09 06:00:58;;;;;;;15.32;1.45;;;;;13.50;100958.00;;;;5027133;28;20030;-68
2021/06/09 06:03:26;;;;;;;11.75;1.35;;;;;13.50;100967.00;;;;5027354;28;20395;-67
2021/06/09 06:05:57;;;;;;;15.07;1.73;;;;;13.50;100970.00;;;;5027047;28;20462;-68
2021/06/09 06:08:28;;;;;;;22.38;2.10;;;;;13.50;100968.00;;;;5027139;28;20034;-71
2021/06/09 06:10:56;;;;;;;16.42;2.05;;;;;13.50;100964.00;;;;5026880;28;20087;-69
2021/06/09 06:13:25;;;;;;;19.58;1.77;;;;;13.50;100962.00;;;;5026746;28;20068;-70
2021/06/09 06:15:56;;;;;;;14.25;1.77;;;;;13.50;100966.00;;;;5026824;28;20068;-70
2021/06/09 06:18:36;;;;;;;21.75;1.63;;;;;13.50;100960.00;;;;5027399;28;20132;-70
2021/06/09 06:21:04;;;;;;;21.10;2.03;;;;;13.50;100964.00;;;;5027228;28;20042;-70
2021/06/09 06:23:31;;;;;;;16.33;1.65;;;;;13.50;100978.00;;;;5027087;28;20503;-67
2021/06/09 06:25:58;;;;;;;8.23;1.73;;;;;13.50;100963.00;;;;5026546;28;20033;-70
2021/06/09 06:28:25;;;;;;;11.13;1.58;;;;;13.50;100967.00;;;;5027295;28;20037;-70
2021/06/09 06:30:53;;;;;;;8.85;1.35;;;;;13.50;100965.00;;;;5026598;28;20033;-69
2021/06/09 06:33:25;;;;;;;27.10;1.90;;;;;13.50;100972.00;;;;5026965;28;20025;-69
2021/06/09 06:35:52;;;;;;;12.73;1.73;;;;;13.50;100975.00;;;;5026805;28;20029;-68
2021/06/09 06:38:20;;;;;;;9.80;1.75;;;;;13.50;100979.00;;;;5026628;28;20450;-70
2021/06/09 06:40:48;;;;;;;17.67;1.60;;;;;13.50;100987.00;;;;5026493;28;20060;-69
2021/06/09 06:43:15;;;;;;;14.60;2.22;;;;;13.60;100986.00;;;;5026946;28;20095;-71
2021/06/09 06:45:43;;;;;;;15.23;1.80;;;;;13.60;100990.00;;;;5026415;28;20033;-69
2021/06/09 06:48:10;;;;;;;17.38;2.00;;;;;13.60;100987.00;;;;5026550;28;20039;-69
2021/06/09 06:50:38;;;;;;;19.77;2.05;;;;;13.60;100980.00;;;;5027006;28;20124;-68
2021/06/09 06:53:08;;;;;;;9.32;1.70;;;;;13.60;100965.00;;;;5026577;28;20061;-68
2021/06/09 06:55:35;;;;;;;13.90;1.90;;;;;13.70;100973.00;;;;5027167;28;20523;-68
2021/06/09 06:58:03;;;;;;;20.55;2.00;;;;;13.60;100989.00;;;;5026451;28;20536;-68
2021/06/09 07:00:31;;;;;;;25.42;2.42;;;;;13.60;100984.00;;;;5026661;28;20041;-69
2021/06/09 07:02:59;;;;;;;21.88;2.22;;;;;13.70;100992.00;;;;5027189;28;20037;-68
2021/06/09 07:05:27;;;;;;;14.68;1.90;;;;;13.70;100968.00;;;;5026229;28;20500;-70
2021/06/09 07:07:57;;;;;;;12.05;1.73;;;;;13.70;100980.00;;;;5026416;28;20064;-71
2021/06/09 07:10:24;;;;;;;12.45;1.40;;;;;13.70;100980.00;;;;5026131;28;20050;-67
2021/06/09 07:12:51;;;;;;;14.43;1.40;;;;;13.70;100974.00;;;;5026806;28;20041;-69
2021/06/09 07:15:21;;;;;;;13.68;1.48;;;;;13.70;100962.00;;;;5026535;28;20033;-68
2021/06/09 07:17:52;;;;;;;18.55;2.15;;;;;13.80;100961.00;;;;5029772;28;20065;-71
2021/06/09 07:20:21;;;;;;;6.55;1.45;;;;;13.90;100961.00;;;;5029702;28;20087;-71
2021/06/09 07:22:49;;;;;;;35.10;2.25;;;;;13.90;100965.00;;;;5030232;28;20033;-69
2021/06/09 07:25:16;;;;;;;15.25;1.77;;;;;13.90;100950.00;;;;5030127;28;20496;-67
2021/06/09 07:27:46;;;;;;;18.85;1.73;;;;;13.90;100937.00;;;;5029975;28;20044;-70
2021/06/09 07:30:17;;;;;;;15.70;2.42;;;;;13.90;100955.00;;;;5030106;28;20488;-70
2021/06/09 07:32:46;;;;;;;11.27;2.70;;;;;13.70;100938.00;;;;5030249;28;20366;-68
2021/06/09 07:35:14;;;;;;;13.63;3.13;;;;;13.60;100943.00;;;;5030112;28;20044;-67
2021/06/09 07:37:46;;;;;;;20.05;4.22;;;;;13.60;100939.00;;;;5030871;28;20030;-70
2021/06/09 07:40:19;;;;;;;15.93;4.57;;;;;13.60;100938.00;;;;5029492;28;20029;-70
2021/06/09 07:42:49;;;;;;;16.42;4.75;;;;;13.60;100929.00;;;;5029413;28;20025;-67
2021/06/09 07:45:18;;;;;;;19.23;5.15;;;;;13.60;100941.00;;;;5029824;28;20030;-68
2021/06/09 07:47:47;;;;;;;27.00;6.10;;;;;13.70;100951.00;;;;5029242;28;20036;-70
2021/06/09 07:50:20;;;;;;;21.80;6.47;;;;;13.70;100944.00;;;;5029443;28;20032;-70
2021/06/09 07:52:48;;;;;;;22.33;6.22;;;;;13.70;100960.00;;;;5029414;28;20032;-68
2021/06/09 07:55:15;;;;;;;19.15;6.57;;;;;13.80;100953.00;;;;5029632;28;20029;-71
2021/06/09 07:57:43;;;;;;;22.65;5.85;;;;;13.80;100960.00;;;;5029552;28;20095;-69
2021/06/09 08:00:11;;;;;;;20.75;5.55;;;;;13.90;100955.00;;;;5030031;28;20068;-69
2021/06/09 08:02:41;;;;;;;23.60;6.40;;;;;13.90;100957.00;;;;5029537;28;20064;-70
2021/06/09 08:05:09;;;;;;;24.23;6.43;;;;;13.90;100950.00;;;;5029174;28;20061;-71
2021/06/09 08:07:37;;;;;;;26.35;6.07;;;;;13.90;100943.00;;;;5029184;28;20079;-70
2021/06/09 08:10:07;;;;;;;17.08;5.78;;;;;14.00;100960.00;;;;5028585;28;20575;-68
2021/06/09 08:12:34;;;;;;;18.63;5.53;;;;;14.00;100963.00;;;;5028809;28;20411;-68
2021/06/09 08:15:01;;;;;;;22.00;5.68;;;;;14.00;100965.00;;;;5028789;28;20410;-69
2021/06/09 08:17:28;;;;;;;19.90;5.38;;;;;14.00;100957.00;;;;5029101;28;20492;-70
2021/06/09 08:19:55;;;;;;;29.35;5.63;;;;;14.00;100972.00;;;;5029178;28;20471;-69
2021/06/09 08:22:22;;;;;;;21.83;5.35;;;;;14.00;100972.00;;;;5029699;28;20509;-70
2021/06/09 08:24:50;;;;;;;23.67;5.60;;;;;14.00;100966.00;;;;5029000;28;20021;-69
2021/06/09 08:27:17;;;;;;;23.45;4.60;;;;;14.00;100959.00;;;;5028520;28;20029;-70
2021/06/09 08:29:43;;;;;;;19.23;4.78;;;;;14.00;100965.00;;;;5029107;28;20488;-70
2021/06/09 08:32:10;;;;;;;23.00;4.60;;;;;14.00;100956.00;;;;5027530;28;20030;-69
2021/06/09 08:34:37;;;;;;;24.20;4.90;;;;;14.00;100946.00;;;;5028646;28;20045;-70
2021/06/09 08:37:04;;;;;;;17.40;5.07;;;;;14.10;100931.00;;;;5028625;28;20049;-67
2021/06/09 08:39:31;;;;;;;14.70;4.55;;;;;14.00;100928.00;;;;5028592;28;20428;-69
2021/06/09 08:42:01;;;;;;;22.67;5.38;;;;;14.10;100931.00;;;;5028533;28;20251;-68
2021/06/09 08:44:28;;;;;;;24.60;4.47;;;;;14.10;100931.00;;;;5028690;28;20025;-66
2021/06/09 08:46:58;;;;;;;19.80;3.95;;;;;14.10;100917.00;;;;5028797;28;20295;-69
2021/06/09 08:49:25;;;;;;;17.48;4.20;;;;;14.20;100935.00;;;;5028666;28;20040;-67
2021/06/09 08:51:54;;;;;;;20.42;4.35;;;;;14.20;100934.00;;;;5027814;28;20029;-68
2021/06/09 08:54:22;;;;;;;17.42;3.88;;;;;14.50;100947.00;;;;5028845;28;20029;-69
2021/06/09 08:56:51;;;;;;;20.55;4.57;;;;;14.60;100943.00;;;;5028514;28;20071;-71
2021/06/09 08:59:22;;;;;;;19.83;3.70;;;;;14.60;100937.00;;;;5028530;28;20104;-70
2021/06/09 09:01:49;;;;;;;16.50;3.17;;;;;14.60;100944.00;;;;5028477;28;20570;-69
2021/06/09 09:04:16;;;;;;;12.95;3.30;;;;;14.60;100942.00;;;;5027845;28;20299;-68
2021/06/09 09:06:43;;;;;;;23.45;4.75;;;;;14.70;100942.00;;;;5026899;28;20115;-70
2021/06/09 09:09:10;;;;;;;18.50;3.25;;;;;14.80;100947.00;;;;5028420;28;20033;-68
2021/06/09 09:11:37;;;;;;;18.25;3.47;;;;;14.80;100954.00;;;;5028510;28;20045;-69
2021/06/09 09:14:03;;;;;;;13.55;2.88;;;;;14.80;100970.00;;;;5028032;28;20042;-68
2021/06/09 09:16:30;;;;;;;19.48;3.50;;;;;14.80;100963.00;;;;5027772;28;20215;-70
2021/06/09 09:21:38;;;;;;;17.30;3.40;;;;;14.50;100969.00;;;;5028313;28;20025;-68
2021/06/09 09:24:08;;;;;;;;;;;;;14.50;100984.00;;;;5028502;28;20116;-70
2021/06/09 09:26:35;;;;;;;16.13;3.88;;;;;14.40;100992.00;;;;5028016;28;20469;-69
2021/06/09 09:29:18;;;;;;;17.98;3.60;;;;;14.50;101003.00;;;;5028115;28;20041;-69
2021/06/09 09:31:56;;;;;;;18.17;4.07;;;;;14.40;101005.00;;;;5028471;28;20029;-69
2021/06/09 09:34:35;;;;;;;18.42;6.43;;;;;14.40;101008.00;;;;5027945;28;20039;-68
2021/06/09 09:37:20;;;;;;;22.63;6.88;;;;;14.30;101015.00;;;;5026434;28;20071;-70
2021/06/09 09:39:50;;;;;;;16.75;6.70;;;;;14.20;101009.00;;;;5026182;28;20039;-70
2021/06/09 09:42:30;;;;;;;25.45;6.97;;;;;14.20;101014.00;;;;5027101;28;20454;-69
2021/06/09 09:45:24;;;;;;;21.27;10.07;;;;;14.10;101015.00;;;;5026968;28;20534;-67
2021/06/09 09:48:18;;;;;;;24.23;9.48;;;;;14.10;101020.00;;;;5026255;28;20484;-69
2021/06/09 09:50:45;;;;;;;22.55;10.48;;;;;14.00;101025.00;;;;5027051;28;20072;-69
2021/06/09 09:53:32;;;;;;;26.70;10.55;;;;;14.00;101030.00;;;;5027178;28;20683;-70
2021/06/09 09:56:04;;;;;;;24.42;10.80;;;;;13.90;101045.00;;;;5027147;28;20060;-67
2021/06/09 09:58:33;;;;;;;25.08;10.98;;;;;13.90;101035.00;;;;5026683;28;20393;-67
2021/06/09 10:01:24;;;;;;;31.17;11.65;;;;;13.90;101026.00;;;;5026882;28;20092;-70
2021/06/09 10:03:56;;;;;;;27.42;11.93;;;;;13.90;101039.00;;;;5026614;28;20382;-69
2021/06/09 10:06:31;;;;;;;30.60;10.77;;;;;13.80;101028.00;;;;5027025;28;20029;-69
2021/06/09 10:09:07;;;;;;;34.92;12.00;;;;;13.80;101027.00;;;;5026498;28;20068;-67
2021/06/09 10:11:37;;;;;;;21.17;10.45;;;;;13.80;101040.00;;;;5026961;28;20052;-69
2021/06/09 10:14:19;;;;;;;24.23;10.07;;;;;13.80;101040.00;;;;5027365;28;20030;-69
2021/06/09 10:16:48;;;;;;;27.02;10.68;;;;;13.80;101035.00;;;;5027226;28;20030;-67
2021/06/09 10:19:16;;;;;;;28.75;10.98;;;;;13.90;101049.00;;;;5026802;28;20092;-71
2021/06/09 10:21:47;;;;;;;30.80;10.18;;;;;13.90;101046.00;;;;5026966;28;20037;-68
2021/06/09 10:24:14;;;;;;;30.55;9.60;;;;;13.80;101050.00;;;;5027230;28;20033;-69
2021/06/09 10:26:52;;;;;;;22.83;8.07;;;;;13.90;101054.00;;;;5027525;28;20405;-67
2021/06/09 10:29:21;;;;;;;29.00;7.85;;;;;13.80;101050.00;;;;5026905;28;20048;-70
2021/06/09 10:31:54;;;;;;;22.95;7.55;;;;;13.80;101063.00;;;;5026543;28;20056;-68
2021/06/09 10:34:26;;;;;;;22.77;8.95;;;;;13.80;101067.00;;;;5026929;28;20125;-68
2021/06/09 10:36:55;;;;;;;27.30;12.27;;;;;13.90;101065.00;;;;5027190;28;20120;-68
2021/06/09 10:39:24;;;;;;;28.50;10.10;;;;;13.90;101069.00;;;;5026492;28;20109;-68
2021/06/09 10:41:54;;;;;;;22.35;9.93;;;;;13.90;101068.00;;;;5026371;28;20034;-67
2021/06/09 10:44:25;;;;;;;24.58;9.15;;;;;14.00;101063.00;;;;5025752;28;20033;-68
2021/06/09 10:46:57;;;;;;;25.67;11.43;;;;;14.00;101084.00;;;;5026018;28;20397;-67
2021/06/09 10:49:25;;;;;;;19.35;9.75;;;;;14.00;101072.00;;;;5025991;28;20083;-70
2021/06/09 10:51:54;;;;;;;18.95;8.85;;;;;14.00;101094.00;;;;5028982;28;20034;-69
2021/06/09 10:54:24;;;;;;;20.08;7.05;;;;;14.00;101106.00;;;;5030382;28;20072;-68
2021/06/09 10:56:52;;;;;;;14.75;6.78;;;;;14.00;101089.00;;;;5030175;28;20084;-70
2021/06/09 10:59:27;;;;;;;12.65;6.50;;;;;14.00;101086.00;;;;5030765;28;20131;-70
2021/06/09 11:02:01;;;;;;;18.90;7.35;;;;;14.00;101095.00;;;;5031103;28;20029;-69
2021/06/09 11:04:32;;;;;;;16.30;6.38;;;;;14.00;101086.00;;;;5030483;28;20037;-67
2021/06/09 11:06:58;;;;;;;;;;;;;14.00;101093.00;;;;5030451;28;20041;-70
2021/06/09 11:09:30;;;;;;;25.00;7.15;;;;;14.10;101090.00;;;;5029927;28;19921;-69
2021/06/09 11:12:15;;;;;;;19.08;7.10;;;;;14.20;101089.00;;;;5030497;28;20052;-68
2021/06/09 11:15:00;;;;;;;16.65;6.57;;;;;14.20;101085.00;;;;5030055;28;20085;-68
2021/06/09 11:17:39;;;;;;;15.68;6.68;;;;;14.20;101093.00;;;;5029936;28;20060;-70
2021/06/09 11:20:19;;;;;;;15.45;6.80;;;;;14.30;101108.00;;;;5030804;28;20881;-69
2021/06/09 11:22:51;;;;;;;15.13;6.38;;;;;14.30;101102.00;;;;5030064;28;20033;-70
2021/06/09 11:25:28;;;;;;;9.50;6.07;;;;;14.40;101099.00;;;;5030507;28;20559;-71
2021/06/09 11:28:01;;;;;;;25.17;6.93;;;;;14.40;101117.00;;;;5029580;28;20504;-70
2021/06/09 11:30:31;;;;;;;18.08;8.57;;;;;14.50;101112.00;;;;5030233;28;20037;-68
2021/06/09 11:33:04;;;;;;;16.17;6.95;;;;;14.60;101116.00;;;;5029784;28;20034;-70
2021/06/09 11:35:46;;;;;;;13.80;6.72;;;;;14.70;101117.00;;;;5029575;28;20022;-69
2021/06/09 11:38:12;;;;;;;;;;;;;14.70;101119.00;;;;5030189;28;20038;-71
2021/06/09 11:40:48;;;;;;;18.77;6.38;;;;;14.70;101119.00;;;;5029318;28;19917;-69
2021/06/09 11:43:23;;;;;;;15.50;8.40;;;;;14.70;101099.00;;;;5029877;28;20118;-69
2021/06/09 11:45:59;;;;;;;19.38;6.50;;;;;14.80;101112.00;;;;5029130;28;20392;-70
2021/06/09 11:48:27;;;;;;;21.90;14.23;;;;;14.80;101104.00;;;;5029892;28;20037;-71
2021/06/09 11:51:18;;;;;;;32.25;16.42;;;;;14.90;101104.00;;;;5029334;28;20107;-68
2021/06/09 11:53:47;;;;;;;26.95;16.58;;;;;15.00;101099.00;;;;5029455;28;20147;-68
2021/06/09 11:56:19;;;;;;;23.88;12.38;;;;;15.00;101099.00;;;;5029559;28;20102;-69
2021/06/09 11:58:49;;;;;;;19.33;10.05;;;;;15.10;101112.00;;;;5029471;28;20033;-69
2021/06/09 12:01:18;;;;;;;13.82;8.80;;;;;15.20;101103.00;;;;5029047;28;20025;-71
2021/06/09 12:03:45;;;;;;;15.57;8.73;;;;;15.20;101107.00;;;;5028026;28;20042;-70
2021/06/09 12:06:18;;;;;;;15.52;8.35;;;;;15.20;101120.00;;;;5029084;28;20037;-71
2021/06/09 12:08:49;;;;;;;13.82;9.27;;;;;15.30;101122.00;;;;5029372;28;20029;-68
2021/06/09 12:11:16;;;;;;;18.25;8.65;;;;;15.30;101120.00;;;;5028750;28;20080;-71
2021/06/09 12:13:43;;;;;;;16.92;8.18;;;;;15.30;101118.00;;;;5028875;28;20578;-70
2021/06/09 12:16:18;;;;;;;14.38;7.88;;;;;15.40;101128.00;;;;5029206;28;20029;-72
2021/06/09 12:18:45;;;;;;;13.40;7.55;;;;;15.40;101127.00;;;;5029069;28;20065;-69